createdAt,value
2023-10-31T00:03:32.409Z,85.08
2023-10-31T00:08:42.158Z,85.13
2023-10-31T00:13:52.446Z,85.11
2023-10-31T00:19:02.095Z,85.10
2023-10-31T00:24:13.650Z,85.07
2023-10-31T00:29:23.298Z,85.29
2023-10-31T00:34:33.224Z,85.46
2023-10-31T00:39:42.893Z,85.37
2023-10-31T00:44:52.474Z,85.42
2023-10-31T00:50:02.090Z,85.56
2023-10-31T00:55:12.765Z,85.65
2023-10-31T01:00:23.956Z,85.85
2023-10-31T01:05:33.708Z,85.85
2023-10-31T01:10:43.389Z,85.88
2023-10-31T01:15:53.272Z,85.96
2023-10-31T01:21:03.141Z,86.06
2023-10-31T01:26:12.844Z,85.96
2023-10-31T01:31:22.611Z,86.16
2023-10-31T01:36:33.238Z,86.02
2023-10-31T01:41:45.316Z,86.32
2023-10-31T01:46:55.308Z,86.40
2023-10-31T01:52:06.256Z,86.56
2023-10-31T01:57:17.421Z,86.46
2023-10-31T02:02:29.958Z,86.47
2023-10-31T02:07:40.115Z,86.47
2023-10-31T02:12:49.938Z,86.47
2023-10-31T02:17:59.955Z,86.53
2023-10-31T02:23:10.197Z,86.65
2023-10-31T02:28:20.051Z,86.71
2023-10-31T02:33:29.827Z,86.87
2023-10-31T02:38:39.776Z,86.92
2023-10-31T02:43:50.036Z,87.00
2023-10-31T02:48:59.634Z,87.21
2023-10-31T02:54:10.536Z,87.10
2023-10-31T02:59:20.212Z,87.08
2023-10-31T03:04:30.225Z,87.12
2023-10-31T03:09:40.223Z,87.29
2023-10-31T03:14:50.296Z,87.14
2023-10-31T03:20:00.289Z,87.26
2023-10-31T03:25:12.155Z,87.40
2023-10-31T03:30:21.990Z,87.40
2023-10-31T03:35:32.064Z,87.33
2023-10-31T03:40:42.478Z,87.39
2023-10-31T03:45:52.353Z,87.36
2023-10-31T03:51:02.047Z,87.29
2023-10-31T03:56:12.592Z,87.29
2023-10-31T04:01:22.351Z,87.32
2023-10-31T04:06:32.280Z,87.39
2023-10-31T04:11:42.763Z,87.61
2023-10-31T04:16:52.600Z,87.60
2023-10-31T04:22:02.418Z,87.60
2023-10-31T04:27:12.519Z,87.68
2023-10-31T04:32:22.231Z,87.57
2023-10-31T04:37:34.645Z,87.61
2023-10-31T04:42:49.044Z,87.48
2023-10-31T04:47:59.154Z,87.51
2023-10-31T04:53:09.715Z,87.58
2023-10-31T04:58:19.459Z,87.64
2023-10-31T05:03:29.595Z,87.54
2023-10-31T05:08:39.504Z,87.57
2023-10-31T05:13:49.135Z,87.47
2023-10-31T05:19:06.003Z,87.51
2023-10-31T05:24:16.037Z,87.48
2023-10-31T05:29:25.776Z,87.63
2023-10-31T05:34:35.556Z,87.64
2023-10-31T05:39:45.175Z,87.60
2023-10-31T05:44:54.969Z,87.54
2023-10-31T05:50:05.053Z,87.53
2023-10-31T05:55:15.530Z,87.56
2023-10-31T06:00:25.762Z,87.54
2023-10-31T06:05:35.698Z,87.57
2023-10-31T06:10:45.939Z,87.56
2023-10-31T06:15:58.300Z,87.67
2023-10-31T06:21:11.437Z,87.54
2023-10-31T06:26:21.328Z,87.53
2023-10-31T06:31:31.145Z,87.49
2023-10-31T06:36:41.036Z,87.46
2023-10-31T06:41:50.886Z,87.28
2023-10-31T06:47:00.874Z,87.14
2023-10-31T06:52:11.540Z,86.88
2023-10-31T06:57:21.124Z,86.61
2023-10-31T07:02:30.849Z,86.39
2023-10-31T07:07:40.590Z,86.10
2023-10-31T07:12:50.346Z,86.01
2023-10-31T07:18:00.097Z,85.55
2023-10-31T07:23:09.739Z,85.03
2023-10-31T07:28:20.006Z,84.65
2023-10-31T07:33:29.729Z,84.53
2023-10-31T07:38:39.470Z,84.71
2023-10-31T07:43:49.316Z,84.33
2023-10-31T07:48:59.228Z,83.94
2023-10-31T07:54:10.976Z,83.60
2023-10-31T07:59:20.853Z,83.44
2023-10-31T08:04:31.326Z,83.18
2023-10-31T08:09:41.235Z,82.53
2023-10-31T08:14:51.147Z,82.34
2023-10-31T08:20:00.811Z,81.14
2023-10-31T08:25:12.226Z,80.99
2023-10-31T08:30:23.179Z,80.28
2023-10-31T08:35:32.986Z,80.22
2023-10-31T08:40:42.829Z,79.40
2023-10-31T08:45:52.765Z,79.08
2023-10-31T08:51:02.484Z,79.32
2023-10-31T08:56:13.496Z,78.92
2023-10-31T09:01:23.555Z,78.96
2023-10-31T09:06:33.378Z,77.93
2023-10-31T09:11:43.802Z,77.49
2023-10-31T09:16:53.505Z,76.76
2023-10-31T09:22:03.383Z,77.22
2023-10-31T09:27:13.939Z,76.68
2023-10-31T09:32:24.748Z,76.68
2023-10-31T09:37:34.623Z,76.63
2023-10-31T09:42:47.772Z,76.61
2023-10-31T09:47:58.841Z,76.00
2023-10-31T09:53:11.124Z,76.32
2023-10-31T09:58:20.851Z,76.85
2023-10-31T10:03:31.681Z,77.25
2023-10-31T10:08:45.032Z,77.76
2023-10-31T10:13:55.850Z,78.19
2023-10-31T10:19:22.149Z,78.74
2023-10-31T10:24:32.045Z,79.35
2023-10-31T10:29:42.974Z,79.79
2023-10-31T10:34:53.943Z,80.54
2023-10-31T10:40:06.374Z,80.82
2023-10-31T10:45:18.011Z,81.20
2023-10-31T10:50:31.349Z,81.51
2023-10-31T10:55:49.825Z,81.76
2023-10-31T11:01:01.318Z,82.63
2023-10-31T11:06:12.610Z,83.34
2023-10-31T11:11:24.476Z,84.50
2023-10-31T11:16:45.909Z,84.43
2023-10-31T11:22:05.886Z,85.14
2023-10-31T11:27:16.225Z,85.79
2023-10-31T11:32:31.135Z,86.80
2023-10-31T11:37:40.775Z,86.33
2023-10-31T11:42:55.634Z,86.71
2023-10-31T11:48:07.105Z,86.81
2023-10-31T11:53:18.939Z,86.64
2023-10-31T11:58:32.054Z,86.93
2023-10-31T12:03:49.167Z,86.93
2023-10-31T12:09:03.880Z,86.47
2023-10-31T12:14:13.921Z,86.76
2023-10-31T12:19:27.111Z,86.72
2023-10-31T12:24:37.072Z,86.61
2023-10-31T12:29:46.920Z,86.77
2023-10-31T12:34:56.928Z,86.69
2023-10-31T12:40:10.691Z,86.46
2023-10-31T12:45:21.914Z,86.22
2023-10-31T12:50:31.793Z,85.80
2023-10-31T12:55:46.754Z,85.85
2023-10-31T13:00:59.041Z,86.07
2023-10-31T13:06:22.005Z,86.17
2023-10-31T13:11:35.514Z,86.40
2023-10-31T13:16:45.380Z,86.35
2023-10-31T13:21:58.139Z,86.22
2023-10-31T13:27:09.327Z,85.91
2023-10-31T13:32:19.118Z,85.79
2023-10-31T13:37:28.756Z,85.53
2023-10-31T13:42:38.820Z,85.57
2023-10-31T13:47:48.672Z,85.50
2023-10-31T13:52:58.802Z,85.46
2023-10-31T13:58:08.824Z,85.14
2023-10-31T14:03:19.256Z,84.99
2023-10-31T14:08:29.228Z,85.08
2023-10-31T14:13:41.123Z,85.11
2023-10-31T14:18:51.739Z,85.01
2023-10-31T14:24:08.377Z,84.74
2023-10-31T14:29:21.030Z,84.35
2023-10-31T14:34:30.809Z,84.08
2023-10-31T14:39:40.725Z,84.03
2023-10-31T14:44:50.752Z,84.07
2023-10-31T14:50:00.360Z,84.20
2023-10-31T14:55:13.783Z,84.14
2023-10-31T15:00:23.994Z,84.25
2023-10-31T15:05:34.165Z,84.07
2023-10-31T15:10:43.953Z,84.04
2023-10-31T15:15:53.818Z,84.13
2023-10-31T15:21:03.781Z,84.29
2023-10-31T15:26:14.843Z,84.42
2023-10-31T15:31:25.023Z,84.39
2023-10-31T15:36:34.997Z,84.53
2023-10-31T15:41:44.692Z,84.82
2023-10-31T15:46:54.465Z,85.43
2023-10-31T15:52:04.534Z,86.07
2023-10-31T15:57:18.755Z,86.29
2023-10-31T16:02:28.702Z,86.32
2023-10-31T16:07:39.251Z,86.49
2023-10-31T16:12:48.907Z,85.44
2023-10-31T16:17:58.746Z,84.17
2023-10-31T16:23:08.608Z,82.95
2023-10-31T16:28:18.308Z,81.93
2023-10-31T16:33:29.397Z,82.19
2023-10-31T16:38:39.360Z,82.07
2023-10-31T16:43:49.288Z,82.17
2023-10-31T16:48:58.979Z,82.12
2023-10-31T16:54:09.287Z,82.21
2023-10-31T16:59:19.174Z,82.15
2023-10-31T17:04:29.308Z,82.09
2023-10-31T17:09:39.078Z,81.21
2023-10-31T17:14:48.991Z,80.70
2023-10-31T17:19:58.642Z,80.15
2023-10-31T17:25:09.456Z,79.78
2023-10-31T17:30:20.158Z,79.15
2023-10-31T17:35:30.007Z,78.81
2023-10-31T17:40:39.793Z,78.58
2023-10-31T17:45:50.208Z,79.00
2023-10-31T17:51:24.357Z,78.52
2023-10-31T17:56:34.720Z,78.88
2023-10-31T18:01:44.405Z,78.92
2023-10-31T18:06:54.248Z,79.14
2023-10-31T18:12:03.950Z,79.47
2023-10-31T18:17:13.826Z,79.65
2023-10-31T18:22:23.663Z,79.77
2023-10-31T18:27:33.620Z,79.83
2023-10-31T18:32:43.919Z,79.86
2023-10-31T18:37:53.717Z,79.89
2023-10-31T18:43:03.727Z,79.86
2023-10-31T18:48:13.409Z,79.82
2023-10-31T18:53:23.484Z,79.86
2023-10-31T18:58:33.233Z,79.88
2023-10-31T19:03:43.026Z,79.83
2023-10-31T19:08:52.782Z,79.84
2023-10-31T19:14:02.554Z,79.90
2023-10-31T19:19:12.623Z,79.86
2023-10-31T19:24:22.767Z,79.71
2023-10-31T19:29:32.684Z,79.82
2023-10-31T19:34:44.400Z,79.86
2023-10-31T19:39:54.219Z,79.78
2023-10-31T19:45:05.205Z,79.96
2023-10-31T19:50:16.494Z,79.96
2023-10-31T19:55:26.907Z,79.99
2023-10-31T20:00:36.692Z,79.99
2023-10-31T20:05:46.300Z,79.91
2023-10-31T20:10:56.207Z,79.89
2023-10-31T20:16:06.527Z,79.75
2023-10-31T20:21:16.394Z,79.79
2023-10-31T20:26:26.112Z,79.61
2023-10-31T20:31:36.801Z,79.10
2023-10-31T20:36:46.539Z,78.99
2023-10-31T20:41:56.417Z,78.49
2023-10-31T20:47:06.617Z,78.03
2023-10-31T20:52:16.423Z,78.10
2023-10-31T20:57:26.162Z,77.89
2023-10-31T21:02:36.152Z,77.58
2023-10-31T21:07:46.068Z,77.79
2023-10-31T21:12:56.090Z,77.75
2023-10-31T21:18:07.157Z,77.86
2023-10-31T21:23:18.207Z,78.16
2023-10-31T21:28:28.847Z,78.46
2023-10-31T21:33:38.985Z,79.09
2023-10-31T21:38:48.842Z,80.69
2023-10-31T21:43:58.655Z,82.14
2023-10-31T21:49:08.358Z,82.65
2023-10-31T21:54:18.254Z,82.82
2023-10-31T21:59:29.961Z,83.56
2023-10-31T22:04:39.791Z,83.68
2023-10-31T22:09:49.394Z,83.83
2023-10-31T22:14:59.692Z,83.70
2023-10-31T22:20:11.763Z,83.48
2023-10-31T22:25:22.128Z,83.29
2023-10-31T22:30:31.973Z,83.03
2023-10-31T22:35:41.752Z,82.66
2023-10-31T22:40:51.499Z,82.50
2023-10-31T22:46:01.950Z,82.28
2023-10-31T22:51:12.541Z,81.85
2023-10-31T22:56:22.544Z,81.49
2023-10-31T23:01:32.203Z,81.26
2023-10-31T23:06:42.444Z,80.98
2023-10-31T23:11:52.193Z,80.81
2023-10-31T23:17:01.951Z,80.76
2023-10-31T23:22:11.875Z,80.25
2023-10-31T23:27:21.710Z,79.43
2023-10-31T23:32:31.584Z,79.24
2023-10-31T23:37:41.645Z,79.49
2023-10-31T23:42:51.348Z,79.23
2023-10-31T23:48:01.283Z,79.10
2023-10-31T23:53:11.105Z,79.13
2023-10-31T23:58:20.904Z,78.94
